Time;durP1;ratioP1;P1;durP2;ratioP2;P2;SDS_P1;SDS_P2;PMS_P1;PMS_P2;Temp;Humidity;BMP_temperature;BMP_pressure;BME280_temperature;BME280_humidity;BME280_pressure;Samples;Min_cycle;Max_cycle;Signal;HPM_P1;HPM_P2
2022/12/10 00:01:21;;;;;;;70.47;28.63;;;-1.30;99.90;;;;;;5039749;28;20053;-81
2022/12/10 00:03:46;;;;;;;74.70;30.65;;;-1.70;99.90;;;;;;5035280;28;20041;-81
2022/12/10 00:06:17;;;;;;;83.05;31.75;;;-1.40;99.90;;;;;;5021369;28;20040;-81
2022/12/10 00:08:43;;;;;;;72.73;30.20;;;-1.40;99.90;;;;;;5041117;28;20449;-81
2022/12/10 00:11:11;;;;;;;69.75;30.75;;;-1.40;99.90;;;;;;5042250;28;20377;-81
2022/12/10 00:13:37;;;;;;;70.82;30.10;;;-1.40;99.90;;;;;;5033954;28;20048;-81
2022/12/10 00:16:06;;;;;;;77.63;30.65;;;-1.40;99.90;;;;;;5019943;28;20041;-81
2022/12/10 00:18:32;;;;;;;77.30;31.05;;;-1.40;99.90;;;;;;5057486;28;20053;-81
2022/12/10 00:21:01;;;;;;;73.80;31.58;;;-1.40;99.90;;;;;;5025089;28;20037;-82
2022/12/10 00:23:28;;;;;;;76.97;32.38;;;-1.40;99.90;;;;;;5056633;28;20468;-81
2022/12/10 00:25:53;;;;;;;81.72;30.13;;;-1.40;99.90;;;;;;5040263;28;20044;-82
2022/12/10 00:28:19;;;;;;;70.18;30.02;;;-1.40;99.90;;;;;;5028036;28;20044;-82
2022/12/10 00:30:45;;;;;;;74.10;29.83;;;-0.50;99.90;;;;;;5024533;28;20118;-82
2022/12/10 00:33:11;;;;;;;72.22;30.75;;;-0.80;99.90;;;;;;5039811;28;20033;-80
2022/12/10 00:35:37;;;;;;;71.90;31.00;;;-0.10;99.90;;;;;;5042066;28;20041;-82
2022/12/10 00:38:03;;;;;;;78.20;32.40;;;-1.40;99.90;;;;;;5044013;28;20047;-82
2022/12/10 00:40:28;;;;;;;73.90;30.10;;;-1.50;99.90;;;;;;5046110;28;20040;-82
2022/12/10 00:42:54;;;;;;;68.05;29.65;;;-0.40;99.90;;;;;;5034316;28;20102;-81
2022/12/10 00:45:34;;;;;;;75.38;30.52;;;-1.50;99.90;;;;;;5056963;28;20040;-82
2022/12/10 00:48:00;;;;;;;76.65;31.63;;;-1.50;99.90;;;;;;5045740;28;20120;-82
2022/12/10 00:50:26;;;;;;;71.75;29.23;;;-1.50;99.90;;;;;;5049874;28;20049;-82
2022/12/10 00:52:52;;;;;;;73.45;30.98;;;-1.50;99.90;;;;;;5047697;28;20478;-81
2022/12/10 00:55:17;;;;;;;77.32;31.00;;;-1.50;99.90;;;;;;5062968;28;20028;-82
2022/12/10 00:57:43;;;;;;;66.90;29.17;;;-1.30;99.90;;;;;;5041414;28;20040;-82
2022/12/10 01:00:10;;;;;;;71.90;31.00;;;-1.50;99.90;;;;;;5044418;28;20583;-82
2022/12/10 01:02:35;;;;;;;78.70;30.73;;;-1.50;99.90;;;;;;5057511;28;20123;-82
2022/12/10 01:05:01;;;;;;;77.72;31.45;;;-1.50;99.90;;;;;;5022824;28;20120;-82
2022/12/10 01:07:27;;;;;;;75.70;29.85;;;-1.50;99.90;;;;;;5035270;28;20041;-81
2022/12/10 01:09:52;;;;;;;69.20;29.15;;;-1.50;99.90;;;;;;5024214;28;20121;-82
2022/12/10 01:12:18;;;;;;;81.78;31.83;;;-1.50;99.90;;;;;;5036265;28;20739;-81
2022/12/10 01:14:44;;;;;;;78.50;32.33;;;-1.60;99.90;;;;;;5045294;28;20045;-81
2022/12/10 01:17:10;;;;;;;76.05;31.48;;;-1.60;99.90;;;;;;5020811;28;20044;-81
2022/12/10 01:19:36;;;;;;;76.57;31.15;;;-1.60;99.90;;;;;;5024475;28;20064;-82
2022/12/10 01:22:02;;;;;;;75.72;30.40;;;-1.30;99.90;;;;;;5030965;28;20037;-82
2022/12/10 01:24:29;;;;;;;76.55;32.08;;;-0.80;99.90;;;;;;5059673;28;20076;-82
2022/12/10 01:26:55;;;;;;;80.00;33.28;;;-1.20;99.90;;;;;;5039400;28;20048;-81
2022/12/10 01:29:21;;;;;;;72.32;32.25;;;-1.00;99.90;;;;;;5043118;28;20048;-82
2022/12/10 01:31:51;;;;;;;76.47;31.80;;;-1.60;99.90;;;;;;5024630;28;20098;-82
2022/12/10 01:34:17;;;;;;;76.68;31.77;;;-1.70;99.90;;;;;;5026985;28;20046;-82
2022/12/10 01:36:47;;;;;;;73.75;31.95;;;-0.70;99.90;;;;;;5026777;28;20048;-81
2022/12/10 01:39:18;;;;;;;87.88;34.40;;;-1.70;99.90;;;;;;5049810;28;20048;-81
2022/12/10 01:41:51;;;;;;;67.00;25.33;;;-1.70;99.90;;;;;;5023770;28;20047;-81
2022/12/10 01:44:17;;;;;;;77.75;31.27;;;-1.70;99.90;;;;;;5016852;28;20110;-81
2022/12/10 01:46:48;;;;;;;80.00;32.30;;;-0.60;99.90;;;;;;5037287;28;20052;-80
2022/12/10 01:49:18;;;;;;;76.65;30.23;;;-0.50;99.90;;;;;;5020487;28;20117;-81
2022/12/10 01:51:46;;;;;;;75.65;31.67;;;-1.70;99.90;;;;;;5051253;28;20044;-81
2022/12/10 01:54:31;;;;;;;80.13;32.60;;;-1.70;99.90;;;;;;5037038;28;20029;-81
2022/12/10 01:57:14;;;;;;;76.63;31.38;;;-1.80;99.90;;;;;;5024632;28;20067;-81
2022/12/10 01:59:42;;;;;;;78.75;31.75;;;-1.80;99.90;;;;;;5036522;28;20057;-81
2022/12/10 02:02:19;;;;;;;76.78;31.55;;;-1.20;99.90;;;;;;5038851;28;20475;-81
2022/12/10 02:05:22;;;;;;;76.43;31.30;;;-3.00;99.90;;;;;;5041083;28;20064;-81
2022/12/10 02:08:01;;;;;;;80.93;33.53;;;-1.80;99.90;;;;;;5038933;28;20125;-81
2022/12/10 02:10:43;;;;;;;78.47;33.50;;;-1.90;99.90;;;;;;5024164;28;20036;-82
2022/12/10 02:13:18;;;;;;;84.20;32.95;;;-1.90;99.90;;;;;;5017961;28;20056;-82
2022/12/10 02:15:50;;;;;;;83.97;34.15;;;-1.90;99.90;;;;;;5035847;28;20049;-82
2022/12/10 02:18:41;;;;;;;81.75;33.90;;;-0.70;99.90;;;;;;5034212;28;20819;-82
2022/12/10 02:21:30;;;;;;;84.57;33.55;;;-1.90;99.90;;;;;;5041098;28;20049;-81
2022/12/10 02:24:01;;;;;;;85.85;33.75;;;-0.70;99.90;;;;;;5029132;28;20060;-81
2022/12/10 02:26:27;;;;;;;;;;;-1.90;99.90;;;;;;5039575;28;20052;-82
2022/12/10 02:29:12;;;;;;;78.45;29.50;;;-0.50;99.90;;;;;;5049994;28;19997;-82
2022/12/10 02:31:42;;;;;;;78.70;33.17;;;-0.90;99.90;;;;;;5023130;28;20045;-82
2022/12/10 02:34:10;;;;;;;80.55;31.55;;;-1.50;99.90;;;;;;5038159;28;20024;-82
2022/12/10 02:36:39;;;;;;;81.75;31.85;;;-1.90;99.90;;;;;;5021396;28;20049;-81
2022/12/10 02:39:10;;;;;;;85.88;32.88;;;-1.60;99.90;;;;;;5033988;28;20044;-82
2022/12/10 02:41:40;;;;;;;93.72;34.42;;;-1.90;99.90;;;;;;5022516;28;21166;-82
2022/12/10 02:44:11;;;;;;;89.10;34.07;;;-0.90;99.90;;;;;;5024389;28;20256;-83
2022/12/10 02:46:39;;;;;;;84.72;33.13;;;-1.80;99.90;;;;;;5028473;28;20163;-83
2022/12/10 02:49:08;;;;;;;85.18;33.28;;;-1.90;99.90;;;;;;5033014;28;20054;-81
2022/12/10 02:51:37;;;;;;;85.18;32.80;;;-1.50;99.90;;;;;;5021219;28;20110;-82
2022/12/10 02:54:05;;;;;;;88.68;34.83;;;-2.00;99.90;;;;;;5037696;28;20102;-81
2022/12/10 02:56:54;;;;;;;81.30;32.95;;;-1.70;99.90;;;;;;5035376;28;20042;-82
2022/12/10 02:59:26;;;;;;;87.50;31.98;;;-2.00;99.90;;;;;;5036465;28;20461;-81
2022/12/10 03:02:05;;;;;;;80.25;31.80;;;-2.00;99.90;;;;;;5033112;28;20044;-81
2022/12/10 03:05:09;;;;;;;90.30;33.33;;;-2.00;99.90;;;;;;5016712;28;20145;-82
2022/12/10 03:07:55;;;;;;;86.90;33.30;;;-2.00;99.90;;;;;;5038337;28;20041;-82
2022/12/10 03:10:39;;;;;;;86.00;32.15;;;-2.00;99.90;;;;;;5033993;28;20050;-81
2022/12/10 03:13:09;;;;;;;84.53;33.72;;;-2.00;99.90;;;;;;5031739;28;20049;-81
2022/12/10 03:15:39;;;;;;;85.25;31.60;;;-2.00;99.90;;;;;;5041192;28;20045;-81
2022/12/10 03:18:07;;;;;;;85.78;33.15;;;-0.90;99.90;;;;;;5020095;28;20046;-81
2022/12/10 03:20:37;;;;;;;90.38;34.92;;;-1.00;99.90;;;;;;5034571;28;20080;-81
2022/12/10 03:23:07;;;;;;;87.88;35.03;;;-2.00;99.90;;;;;;5035766;28;20612;-81
2022/12/10 03:25:34;;;;;;;83.10;34.03;;;-2.00;99.90;;;;;;5036058;28;20083;-81
2022/12/10 03:28:00;;;;;;;88.78;32.20;;;-1.30;99.90;;;;;;5017753;28;20041;-81
2022/12/10 03:30:28;;;;;;;87.28;32.05;;;-2.00;99.90;;;;;;5019624;28;20033;-82
2022/12/10 03:32:54;;;;;;;76.50;30.95;;;-2.00;99.90;;;;;;5041402;28;20056;-82
2022/12/10 03:35:23;;;;;;;88.47;32.70;;;-1.30;99.90;;;;;;5046999;28;20651;-82
2022/12/10 03:37:49;;;;;;;81.25;33.17;;;-1.80;99.90;;;;;;5040243;28;20099;-82
2022/12/10 03:40:18;;;;;;;82.22;33.42;;;-0.80;99.90;;;;;;5022263;28;20041;-81
2022/12/10 03:42:43;;;;;;;83.10;32.38;;;-2.00;99.90;;;;;;5040488;28;20086;-82
2022/12/10 03:45:09;;;;;;;83.25;32.92;;;-2.00;99.90;;;;;;5019514;28;20069;-82
2022/12/10 03:47:35;;;;;;;88.95;33.67;;;-2.00;99.90;;;;;;5040781;28;20481;-83
2022/12/10 03:50:01;;;;;;;85.47;33.25;;;-1.60;99.90;;;;;;5040794;28;20076;-82
2022/12/10 03:52:27;;;;;;;83.93;32.15;;;-2.10;99.90;;;;;;5039111;28;20036;-82
2022/12/10 03:54:53;;;;;;;88.03;32.78;;;-2.00;99.90;;;;;;5040985;28;20045;-83
2022/12/10 03:57:19;;;;;;;85.35;33.92;;;-2.00;99.90;;;;;;5040894;28;20051;-82
2022/12/10 03:59:44;;;;;;;83.10;33.10;;;-2.00;99.90;;;;;;5042034;28;20041;-82
2022/12/10 04:02:10;;;;;;;96.72;35.70;;;-1.80;99.90;;;;;;5039806;28;20055;-82
2022/12/10 04:04:36;;;;;;;87.50;32.72;;;-2.00;99.90;;;;;;5041815;28;20121;-82
2022/12/10 04:07:02;;;;;;;86.50;33.45;;;-1.30;99.90;;;;;;5043558;28;20036;-83
2022/12/10 04:09:28;;;;;;;85.97;33.63;;;-2.00;99.90;;;;;;5061206;28;20272;-82
2022/12/10 04:11:58;;;;;;;77.20;32.65;;;-2.00;99.90;;;;;;5042075;28;20043;-82
2022/12/10 04:17:09;;;;;;;90.97;35.55;;;-2.00;99.90;;;;;;5061815;28;20048;-82
2022/12/10 04:19:35;;;;;;;88.57;35.10;;;-1.90;99.90;;;;;;5042894;28;20036;-82
2022/12/10 04:27:38;;;;;;;89.20;36.10;;;-1.90;99.90;;;;;;5059031;28;20048;-82
2022/12/10 04:30:07;;;;;;;103.03;37.45;;;-1.90;99.90;;;;;;5057608;28;20091;-84
2022/12/10 04:32:33;;;;;;;97.47;35.38;;;-1.80;99.90;;;;;;5041906;28;20607;-83
2022/12/10 04:34:59;;;;;;;103.25;36.40;;;-1.90;99.90;;;;;;5039113;28;20040;-83
2022/12/10 04:37:26;;;;;;;96.88;35.38;;;-1.90;99.90;;;;;;5033811;28;20044;-82
2022/12/10 04:39:53;;;;;;;102.05;37.47;;;-1.90;99.90;;;;;;5042839;28;20045;-83
2022/12/10 04:42:19;;;;;;;99.28;36.50;;;-1.80;99.90;;;;;;5058382;28;20140;-83
2022/12/10 04:44:45;;;;;;;93.47;37.20;;;-1.60;99.90;;;;;;5037694;28;20449;-83
2022/12/10 04:47:11;;;;;;;100.47;35.97;;;-1.40;99.90;;;;;;5057810;28;20041;-82
2022/12/10 04:49:38;;;;;;;89.95;33.00;;;-1.80;99.90;;;;;;5042970;28;20048;-82
2022/12/10 04:52:05;;;;;;;99.63;37.08;;;-0.60;99.90;;;;;;5036750;28;20127;-83
2022/12/10 04:54:31;;;;;;;95.28;34.60;;;-1.70;99.90;;;;;;5023980;28;20630;-84
2022/12/10 04:56:57;;;;;;;100.70;35.97;;;-1.70;99.90;;;;;;5017687;28;20123;-84
2022/12/10 04:59:23;;;;;;;94.60;35.28;;;-1.70;99.90;;;;;;5023351;28;20045;-83
2022/12/10 05:01:49;;;;;;;92.28;33.88;;;-1.10;99.90;;;;;;5043004;28;20854;-84
2022/12/10 05:04:17;;;;;;;103.57;36.28;;;-1.70;99.90;;;;;;5032608;28;20098;-84
2022/12/10 05:06:43;;;;;;;96.82;33.78;;;-1.70;99.90;;;;;;5054095;28;20074;-83
2022/12/10 05:09:11;;;;;;;104.50;35.75;;;-0.60;99.90;;;;;;5057233;28;20561;-84
2022/12/10 05:11:37;;;;;;;123.85;38.13;;;-1.70;99.90;;;;;;5029362;28;20120;-84
2022/12/10 05:14:04;;;;;;;94.88;34.60;;;-1.50;99.90;;;;;;5039183;28;20064;-83
2022/12/10 05:16:31;;;;;;;102.80;35.88;;;-1.50;99.90;;;;;;5041109;28;20171;-83
2022/12/10 05:18:58;;;;;;;95.15;35.67;;;-1.70;99.90;;;;;;5043116;28;20148;-84
2022/12/10 05:23:27;;;;;;;98.22;33.97;;;-1.70;99.90;;;;;;5055707;28;20039;-84
2022/12/10 05:24:13;;;;;;;106.13;35.85;;;-1.70;99.90;;;;;;5039402;28;20684;-84
2022/12/10 05:26:38;;;;;;;115.32;35.13;;;-1.50;99.90;;;;;;5035824;28;20071;-84
2022/12/10 05:29:05;;;;;;;126.57;37.75;;;-1.70;99.90;;;;;;5036842;28;20367;-83
2022/12/10 05:31:31;;;;;;;114.05;35.90;;;-1.70;99.90;;;;;;5041480;28;20064;-82
2022/12/10 05:33:58;;;;;;;124.72;35.13;;;-1.10;99.90;;;;;;5035228;28;20056;-83
2022/12/10 05:36:26;;;;;;;116.68;34.40;;;-1.70;99.90;;;;;;5035270;28;20134;-83
2022/12/10 05:38:53;;;;;;;101.22;32.65;;;-1.60;99.90;;;;;;5024270;28;20406;-83
2022/12/10 05:41:21;;;;;;;130.38;36.10;;;-1.70;99.90;;;;;;5059886;28;20093;-82
2022/12/10 05:43:48;;;;;;;92.57;34.05;;;-1.70;99.90;;;;;;5037407;28;20049;-82
2022/12/10 05:46:16;;;;;;;138.57;35.38;;;-1.70;99.90;;;;;;5037477;28;20041;-82
2022/12/10 05:48:42;;;;;;;94.25;32.17;;;-1.70;99.90;;;;;;5023516;28;20032;-83
2022/12/10 05:51:10;;;;;;;112.85;36.20;;;-1.70;99.90;;;;;;5019704;28;20043;-82
2022/12/10 05:53:37;;;;;;;111.78;36.00;;;-0.50;99.90;;;;;;5049782;28;20052;-82
2022/12/10 05:56:06;;;;;;;105.70;35.42;;;-0.50;99.90;;;;;;5030757;28;20051;-83
2022/12/10 05:58:32;;;;;;;128.43;36.70;;;-1.70;99.90;;;;;;5027349;28;20410;-83
2022/12/10 06:00:58;;;;;;;126.15;34.22;;;-1.20;99.90;;;;;;5036526;28;20044;-83
2022/12/10 06:03:26;;;;;;;106.65;33.83;;;-1.70;99.90;;;;;;5026413;28;20946;-84
2022/12/10 06:05:51;;;;;;;100.38;32.72;;;-1.40;99.90;;;;;;5054166;28;20033;-84
2022/12/10 06:08:17;;;;;;;103.70;32.72;;;-0.70;99.90;;;;;;5039288;28;20041;-84
2022/12/10 06:10:43;;;;;;;128.60;33.30;;;-1.60;99.90;;;;;;5040800;28;20037;-84
2022/12/10 06:13:09;;;;;;;90.63;32.22;;;-0.90;99.90;;;;;;5034695;28;20127;-84
2022/12/10 06:15:39;;;;;;;126.15;31.58;;;-1.60;99.90;;;;;;5037349;28;20055;-84
2022/12/10 06:18:05;;;;;;;129.80;33.92;;;-1.10;99.90;;;;;;5042333;28;20766;-83
2022/12/10 06:20:31;;;;;;;92.97;32.33;;;-1.60;99.90;;;;;;5037107;28;20044;-84
2022/12/10 06:22:57;;;;;;;91.97;30.58;;;-1.60;99.90;;;;;;5042032;28;20140;-83
2022/12/10 06:25:22;;;;;;;86.45;30.45;;;-1.40;99.90;;;;;;5035038;28;20113;-81
2022/12/10 06:27:48;;;;;;;88.70;31.20;;;-1.60;99.90;;;;;;5017682;28;20122;-83
2022/12/10 06:30:14;;;;;;;90.38;29.83;;;-1.60;99.90;;;;;;5028769;28;20041;-83
2022/12/10 06:32:43;;;;;;;117.05;32.70;;;-1.60;99.90;;;;;;5045511;28;20639;-83
2022/12/10 06:35:10;;;;;;;130.55;32.97;;;-0.60;99.90;;;;;;5029225;28;20105;-82
2022/12/10 06:37:37;;;;;;;81.43;30.27;;;-0.50;99.90;;;;;;5037918;28;20479;-83
2022/12/10 06:40:04;;;;;;;85.15;30.60;;;-0.50;99.90;;;;;;5021123;28;20570;-83
2022/12/10 06:42:30;;;;;;;90.20;31.00;;;-1.60;99.90;;;;;;5021498;28;20060;-82
2022/12/10 06:44:56;;;;;;;100.38;30.40;;;-0.40;99.90;;;;;;5018182;28;20040;-83
2022/12/10 06:47:22;;;;;;;106.40;31.02;;;-1.60;99.90;;;;;;5034911;28;20285;-82
2022/12/10 06:49:48;;;;;;;119.40;31.42;;;-1.60;99.90;;;;;;5041003;28;20060;-83
2022/12/10 06:52:13;;;;;;;77.70;26.80;;;-1.60;99.90;;;;;;5042785;28;20489;-83
2022/12/10 06:54:39;;;;;;;80.40;30.38;;;-1.40;99.90;;;;;;5037108;28;20365;-82
2022/12/10 06:57:05;;;;;;;81.28;27.95;;;-1.60;99.90;;;;;;5012625;28;20120;-83
2022/12/10 06:59:31;;;;;;;90.25;29.00;;;-1.60;99.90;;;;;;5028144;28;20055;-81
2022/12/10 07:01:57;;;;;;;102.90;31.42;;;-1.60;99.90;;;;;;5039668;28;20079;-83
2022/12/10 07:04:22;;;;;;;110.72;30.45;;;-1.30;99.90;;;;;;5029928;28;20244;-82
2022/12/10 07:06:48;;;;;;;93.93;30.60;;;-1.60;99.90;;;;;;5029120;28;20516;-82
2022/12/10 07:09:14;;;;;;;95.05;30.60;;;-0.60;99.90;;;;;;5025133;28;20050;-82
2022/12/10 07:11:40;;;;;;;123.70;30.55;;;-1.60;99.90;;;;;;5053425;28;20690;-83
2022/12/10 07:14:07;;;;;;;84.80;28.40;;;-1.60;99.90;;;;;;5016195;28;20037;-83
2022/12/10 07:16:37;;;;;;;88.95;29.63;;;-0.50;99.90;;;;;;5059287;28;20029;-83
2022/12/10 07:19:03;;;;;;;93.30;30.70;;;-1.60;99.90;;;;;;5052125;28;20036;-83
2022/12/10 07:21:34;;;;;;;89.28;28.30;;;-0.10;99.90;;;;;;5033954;28;20555;-82
2022/12/10 07:24:03;;;;;;;84.32;28.52;;;-1.60;99.90;;;;;;5035220;28;20056;-82
2022/12/10 07:26:33;;;;;;;94.43;30.52;;;-1.60;99.90;;;;;;5034923;28;20044;-82
2022/12/10 07:29:03;;;;;;;117.57;29.15;;;-0.60;99.90;;;;;;5032884;28;20106;-83
2022/12/10 07:31:29;;;;;;;93.25;28.92;;;-1.60;99.90;;;;;;5014220;28;20037;-83
2022/12/10 07:33:57;;;;;;;88.20;28.13;;;-1.60;99.90;;;;;;5035421;28;20561;-84
2022/12/10 07:36:24;;;;;;;84.57;28.13;;;-1.30;99.90;;;;;;5043390;28;20036;-82
2022/12/10 07:38:53;;;;;;;109.22;28.95;;;-1.60;99.90;;;;;;5039620;28;20133;-83
2022/12/10 07:41:20;;;;;;;72.10;27.00;;;-1.60;99.90;;;;;;5023118;28;20052;-82
2022/12/10 07:43:47;;;;;;;91.78;26.30;;;-1.60;99.90;;;;;;5027501;28;20125;-82
2022/12/10 07:46:26;;;;;;;89.00;26.23;;;-1.60;99.90;;;;;;5042366;28;20048;-82
2022/12/10 07:48:53;;;;;;;86.32;29.13;;;-1.60;99.90;;;;;;5041853;28;20056;-82
2022/12/10 07:51:20;;;;;;;90.70;27.98;;;-1.60;99.90;;;;;;5058559;28;20037;-82
2022/12/10 07:53:47;;;;;;;95.05;29.33;;;-1.60;99.90;;;;;;5037639;28;20049;-82
2022/12/10 07:56:13;;;;;;;84.57;27.95;;;-1.60;99.90;;;;;;5042044;28;20044;-82
2022/12/10 07:58:44;;;;;;;85.15;28.33;;;-1.40;99.90;;;;;;5059323;28;20139;-81
2022/12/10 08:01:12;;;;;;;82.00;27.17;;;-1.60;99.90;;;;;;5021311;28;20044;-82
2022/12/10 08:03:38;;;;;;;84.72;27.85;;;-1.20;99.90;;;;;;5034572;28;20075;-81
2022/12/10 08:06:08;;;;;;;89.07;28.10;;;-1.60;99.90;;;;;;5038532;28;20037;-83
2022/12/10 08:08:36;;;;;;;93.75;27.35;;;-1.70;99.90;;;;;;5053372;28;20044;-83
2022/12/10 08:11:03;;;;;;;100.40;27.42;;;-1.70;99.90;;;;;;5038964;28;20036;-83
2022/12/10 08:13:29;;;;;;;110.72;28.30;;;-1.70;99.90;;;;;;5028276;28;20045;-82
2022/12/10 08:16:07;;;;;;;95.85;25.50;;;-0.70;99.90;;;;;;5020963;28;20052;-83
2022/12/10 08:18:36;;;;;;;102.40;26.13;;;-1.70;99.90;;;;;;5043923;28;20048;-83
2022/12/10 08:21:15;;;;;;;83.13;26.05;;;-1.70;99.90;;;;;;5044095;28;20044;-84
2022/12/10 08:23:41;;;;;;;81.97;25.80;;;-1.70;99.90;;;;;;5066826;28;20047;-85
2022/12/10 08:26:12;;;;;;;85.85;26.48;;;-1.80;99.90;;;;;;5025954;28;20327;-84
2022/12/10 08:28:38;;;;;;;87.30;24.67;;;-1.50;99.90;;;;;;5038589;28;20429;-83
2022/12/10 08:31:05;;;;;;;131.73;26.33;;;-1.80;99.90;;;;;;5019880;28;20044;-83
2022/12/10 08:33:34;;;;;;;93.38;25.83;;;-1.80;99.90;;;;;;5033700;28;20058;-83
2022/12/10 08:36:00;;;;;;;69.40;23.98;;;-1.70;99.90;;;;;;5025820;28;20489;-83
2022/12/10 08:38:26;;;;;;;86.85;25.35;;;-0.40;99.90;;;;;;5026994;28;20044;-84
2022/12/10 08:40:53;;;;;;;78.85;25.65;;;-1.70;99.90;;;;;;5039540;28;20440;-83
2022/12/10 08:43:19;;;;;;;67.28;25.42;;;-1.70;99.90;;;;;;5034056;28;20036;-83
2022/12/10 08:45:45;;;;;;;80.60;25.92;;;-1.70;99.90;;;;;;5015762;28;20044;-83
2022/12/10 08:48:10;;;;;;;94.97;26.65;;;-1.70;99.90;;;;;;5031236;28;20075;-83
2022/12/10 08:50:37;;;;;;;107.78;26.95;;;-1.70;99.90;;;;;;5049304;28;20079;-83
2022/12/10 08:53:03;;;;;;;103.78;26.27;;;-1.40;99.90;;;;;;5052759;28;20040;-83
2022/12/10 08:55:29;;;;;;;112.43;26.85;;;-1.60;99.90;;;;;;5038024;28;20056;-83
2022/12/10 08:57:58;;;;;;;96.88;24.55;;;-1.70;99.90;;;;;;5050361;28;20489;-83
2022/12/10 09:00:25;;;;;;;67.88;25.17;;;-0.40;99.90;;;;;;5020477;28;20125;-83
2022/12/10 09:02:51;;;;;;;73.22;25.13;;;-1.60;99.90;;;;;;5036629;28;20037;-83
2022/12/10 09:05:17;;;;;;;79.22;24.67;;;-0.90;99.90;;;;;;5021028;28;20075;-81
2022/12/10 09:07:43;;;;;;;87.47;25.60;;;-1.60;99.90;;;;;;5027667;28;20046;-81
2022/12/10 09:10:13;;;;;;;83.80;24.98;;;-1.60;99.90;;;;;;5042082;28;20048;-81
2022/12/10 09:12:39;;;;;;;67.85;24.00;;;-1.60;99.90;;;;;;5042799;28;20048;-83
2022/12/10 09:15:06;;;;;;;73.65;25.77;;;-1.60;99.90;;;;;;5019629;28;20109;-82
2022/12/10 09:17:31;;;;;;;81.13;26.05;;;-1.60;99.90;;;;;;5020761;28;20064;-81
2022/12/10 09:19:57;;;;;;;98.18;26.30;;;-1.60;99.90;;;;;;5015071;28;20052;-82
2022/12/10 09:22:23;;;;;;;95.30;26.27;;;-1.60;99.90;;;;;;5040261;28;20583;-82
2022/12/10 09:24:48;;;;;;;114.45;26.73;;;-1.00;99.90;;;;;;5056268;28;20045;-82
2022/12/10 09:27:14;;;;;;;105.28;25.70;;;-1.70;99.90;;;;;;5052446;28;20079;-81
2022/12/10 09:29:40;;;;;;;77.25;24.42;;;-1.50;99.90;;;;;;5056618;28;20060;-81
2022/12/10 09:32:05;;;;;;;101.57;26.30;;;-1.50;99.90;;;;;;5055230;28;20041;-81
2022/12/10 09:34:31;;;;;;;67.38;24.48;;;-0.60;99.90;;;;;;5019855;28;20045;-81
2022/12/10 09:36:57;;;;;;;60.42;22.33;;;-1.50;99.90;;;;;;5051564;28;20057;-82
2022/12/10 09:39:23;;;;;;;60.95;23.27;;;-1.30;99.90;;;;;;5053165;28;20127;-82
2022/12/10 09:42:18;;;;;;;54.38;20.85;;;-1.40;99.90;;;;;;5053390;28;20127;-81
2022/12/10 09:45:00;;;;;;;55.92;19.35;;;-1.50;99.90;;;;;;5061062;28;20512;-81
2022/12/10 09:47:43;;;;;;;56.67;19.77;;;-1.50;99.90;;;;;;5039727;28;20041;-81
2022/12/10 09:50:23;;;;;;;93.07;21.45;;;-1.40;99.90;;;;;;5037373;28;20061;-81
2022/12/10 09:52:50;;;;;;;56.55;20.50;;;-1.40;99.90;;;;;;5021343;28;20719;-81
2022/12/10 09:55:27;;;;;;;75.82;20.63;;;-1.40;99.90;;;;;;5050271;28;20108;-81
2022/12/10 09:57:53;;;;;;;69.28;20.67;;;-1.40;99.90;;;;;;5015988;28;20383;-81
2022/12/10 10:00:41;;;;;;;63.45;21.23;;;-1.40;99.90;;;;;;5020341;28;20043;-81
2022/12/10 10:03:11;;;;;;;63.78;21.80;;;-1.40;99.90;;;;;;5037260;28;20069;-81
2022/12/10 10:05:41;;;;;;;63.50;22.63;;;-1.40;99.90;;;;;;5037981;28;20037;-81
2022/12/10 10:08:19;;;;;;;74.97;24.42;;;-1.40;99.90;;;;;;5016617;28;20076;-81
2022/12/10 10:10:45;;;;;;;62.92;22.63;;;-1.10;99.90;;;;;;5035564;28;20052;-81
2022/12/10 10:13:35;;;;;;;90.95;23.05;;;-1.40;99.90;;;;;;5023654;28;20044;-82
2022/12/10 10:16:23;;;;;;;70.45;22.50;;;-1.40;99.90;;;;;;5055468;28;20105;-81
2022/12/10 10:18:59;;;;;;;76.97;22.92;;;-1.40;99.90;;;;;;5057623;28;20038;-81
2022/12/10 10:21:28;;;;;;;69.90;23.00;;;-0.20;99.90;;;;;;5020068;28;20055;-81
2022/12/10 10:23:55;;;;;;;66.35;22.65;;;-1.30;99.90;;;;;;5038356;28;20041;-81
2022/12/10 10:26:22;;;;;;;72.70;23.52;;;-1.30;99.90;;;;;;5038831;28;20036;-81
2022/12/10 10:28:50;;;;;;;89.97;24.33;;;-1.30;99.90;;;;;;5020592;28;20075;-82
2022/12/10 10:31:23;;;;;;;77.78;25.98;;;-1.30;99.90;;;;;;5051558;28;20039;-81
2022/12/10 10:33:56;;;;;;;89.82;27.50;;;-1.20;99.90;;;;;;5042765;28;20561;-81
2022/12/10 10:36:28;;;;;;;89.30;26.95;;;-1.20;99.90;;;;;;5043854;28;20406;-81
2022/12/10 10:38:54;;;;;;;80.45;24.45;;;-1.20;99.90;;;;;;5048470;28;20048;-82
2022/12/10 10:41:20;;;;;;;70.85;24.17;;;-1.20;99.90;;;;;;5014906;28;20040;-82
2022/12/10 10:43:47;;;;;;;73.45;25.75;;;-1.20;99.90;;;;;;5030130;28;20634;-82
2022/12/10 10:46:23;;;;;;;89.03;25.73;;;-1.20;99.90;;;;;;5027121;28;20044;-81
2022/12/10 10:48:50;;;;;;;82.28;24.92;;;-1.00;99.90;;;;;;5013709;28;20556;-82
2022/12/10 10:51:25;;;;;;;117.47;28.08;;;-1.10;99.90;;;;;;5016396;28;20079;-82
2022/12/10 10:53:53;;;;;;;68.70;25.10;;;-0.80;99.90;;;;;;5017603;28;20041;-82
2022/12/10 10:56:23;;;;;;;96.03;26.75;;;-1.20;99.90;;;;;;5010400;28;20407;-82
2022/12/10 10:58:52;;;;;;;74.13;26.47;;;-1.20;99.90;;;;;;5015359;28;20418;-81
2022/12/10 11:01:18;;;;;;;81.13;26.90;;;-1.20;99.90;;;;;;5017636;28;20658;-81
2022/12/10 11:03:55;;;;;;;77.38;25.02;;;-1.10;99.90;;;;;;4999663;28;20083;-82
2022/12/10 11:06:21;;;;;;;72.93;24.80;;;-1.10;99.90;;;;;;5015689;28;20098;-82
2022/12/10 11:08:48;;;;;;;78.22;25.65;;;-1.10;99.90;;;;;;5013786;28;20041;-82
2022/12/10 11:11:34;;;;;;;84.18;26.67;;;0.00;99.90;;;;;;5000975;28;20407;-82
2022/12/10 11:14:29;;;;;;;78.72;27.38;;;-1.10;99.90;;;;;;5001495;28;20051;-82
2022/12/10 11:17:19;;;;;;;78.20;26.48;;;-1.10;99.90;;;;;;4999780;28;20546;-83
2022/12/10 11:20:13;;;;;;;113.90;29.37;;;-1.00;99.90;;;;;;5002035;28;20103;-81
2022/12/10 11:22:50;;;;;;;102.72;28.25;;;-1.00;99.90;;;;;;5013593;28;20107;-81
2022/12/10 11:25:15;;;;;;;87.22;27.38;;;-1.00;99.90;;;;;;4996345;28;20038;-82
2022/12/10 11:28:05;;;;;;;89.90;28.08;;;-1.00;99.90;;;;;;5016348;28;20118;-82
2022/12/10 11:30:34;;;;;;;80.68;27.23;;;-1.00;99.90;;;;;;5017419;28;20051;-82
2022/12/10 11:33:29;;;;;;;89.00;28.80;;;-1.00;99.90;;;;;;5017654;28;20088;-81
2022/12/10 11:36:13;;;;;;;88.82;26.73;;;-1.00;99.90;;;;;;5015320;28;21505;-82
2022/12/10 11:38:45;;;;;;;104.45;28.40;;;-0.90;99.90;;;;;;5020110;28;20037;-82
2022/12/10 11:41:28;;;;;;;131.25;30.05;;;-0.60;99.90;;;;;;5017054;28;20059;-82
2022/12/10 11:44:06;;;;;;;92.85;28.25;;;-0.90;99.90;;;;;;5014356;28;20049;-81
2022/12/10 11:47:08;;;;;;;82.97;29.15;;;-0.90;99.90;;;;;;5005589;28;20075;-82
2022/12/10 11:50:12;;;;;;;91.93;29.08;;;-0.80;99.90;;;;;;5027273;28;20528;-81
2022/12/10 11:52:50;;;;;;;80.40;25.27;;;-0.80;99.90;;;;;;4998447;28;20103;-81
2022/12/10 11:55:46;;;;;;;87.90;26.73;;;-0.80;99.90;;;;;;5021217;28;20131;-82
2022/12/10 11:58:43;;;;;;;84.88;26.42;;;-0.80;99.90;;;;;;5041616;28;20075;-82
2022/12/10 12:01:36;;;;;;;72.28;25.40;;;-0.80;99.90;;;;;;4954684;28;20110;-82
2022/12/10 12:04:53;;;;;;;81.88;26.92;;;-0.80;99.90;;;;;;5039915;28;20069;-82
2022/12/10 12:07:22;;;;;;;86.68;26.60;;;-0.70;99.90;;;;;;5010545;28;20057;-82
2022/12/10 12:10:08;;;;;;;81.95;25.88;;;-0.70;99.90;;;;;;5038319;28;20549;-82
2022/12/10 12:12:43;;;;;;;85.97;26.38;;;-0.70;99.90;;;;;;5036608;28;20072;-82
2022/12/10 12:15:20;;;;;;;88.15;26.13;;;-0.70;99.90;;;;;;5035147;28;20037;-82
2022/12/10 12:17:55;;;;;;;80.35;25.60;;;-0.70;99.90;;;;;;5037404;28;20057;-81
2022/12/10 12:20:32;;;;;;;76.95;24.65;;;-0.70;99.90;;;;;;5038367;28;20380;-81
2022/12/10 12:23:14;;;;;;;73.65;24.05;;;-0.70;99.90;;;;;;5032292;28;20052;-81
2022/12/10 12:26:00;;;;;;;69.40;23.48;;;-0.70;99.90;;;;;;5037346;28;20469;-81
2022/12/10 12:28:34;;;;;;;70.60;21.70;;;-0.70;99.90;;;;;;5032873;28;20041;-81
2022/12/10 12:31:18;;;;;;;77.03;22.58;;;-0.60;99.90;;;;;;5013745;28;20122;-82
2022/12/10 12:33:55;;;;;;;72.45;21.75;;;-0.60;99.90;;;;;;5038730;28;20068;-82
2022/12/10 12:36:24;;;;;;;67.80;21.90;;;-0.60;99.90;;;;;;5021574;28;20056;-81
2022/12/10 12:39:03;;;;;;;64.60;21.52;;;-0.60;99.90;;;;;;5019245;28;20045;-82
2022/12/10 12:41:55;;;;;;;59.10;20.90;;;-0.60;99.90;;;;;;5020986;28;20062;-82
2022/12/10 12:45:07;;;;;;;60.67;19.23;;;-0.60;99.90;;;;;;5037088;28;20063;-82
2022/12/10 12:47:56;;;;;;;;;;;-0.60;99.90;;;;;;5033545;28;20052;-82
2022/12/10 12:50:47;;;;;;;59.03;17.88;;;-0.50;99.90;;;;;;5005043;28;19927;-82
2022/12/10 12:53:19;;;;;;;60.42;20.08;;;-0.50;99.90;;;;;;5061051;28;20041;-82